sensor_id;sensor_type;location;lat;lon;timestamp;P1;durP1;ratioP1;P2;durP2;ratioP2
7511;SDS011;9999;48.780;9.146;2022-11-20T00:00:19;2.57;;;2.07;;
7511;SDS011;9999;48.780;9.146;2022-11-20T00:02:46;1.30;;;1.20;;
7511;SDS011;9999;48.780;9.146;2022-11-20T00:05:13;1.93;;;1.40;;
7511;SDS011;9999;48.780;9.146;2022-11-20T00:07:40;4.57;;;2.47;;
7511;SDS011;9999;48.780;9.146;2022-11-20T00:10:07;2.03;;;1.87;;
7511;SDS011;9999;48.780;9.146;2022-11-20T00:12:34;1.93;;;1.73;;
7511;SDS011;9999;48.780;9.146;2022-11-20T00:15:03;1.73;;;1.33;;
7511;SDS011;9999;48.780;9.146;2022-11-20T00:17:30;2.30;;;2.10;;
7511;SDS011;9999;48.780;9.146;2022-11-20T00:19:57;3.43;;;2.13;;
7511;SDS011;9999;48.780;9.146;2022-11-20T00:22:23;2.70;;;2.27;;
7511;SDS011;9999;48.780;9.146;2022-11-20T00:24:50;3.47;;;1.63;;
7511;SDS011;9999;48.780;9.146;2022-11-20T00:27:17;1.60;;;1.37;;
7511;SDS011;9999;48.780;9.146;2022-11-20T00:29:44;5.20;;;2.23;;
7511;SDS011;9999;48.780;9.146;2022-11-20T00:32:13;3.60;;;2.10;;
7511;SDS011;9999;48.780;9.146;2022-11-20T00:34:39;2.13;;;1.90;;
7511;SDS011;9999;48.780;9.146;2022-11-20T00:37:06;11.57;;;3.13;;
7511;SDS011;9999;48.780;9.146;2022-11-20T00:39:33;3.90;;;2.10;;
7511;SDS011;9999;48.780;9.146;2022-11-20T00:42:00;2.37;;;1.80;;
7511;SDS011;9999;48.780;9.146;2022-11-20T00:44:27;2.63;;;1.63;;
7511;SDS011;9999;48.780;9.146;2022-11-20T00:46:54;2.00;;;1.40;;
7511;SDS011;9999;48.780;9.146;2022-11-20T00:49:22;1.63;;;1.40;;
7511;SDS011;9999;48.780;9.146;2022-11-20T00:51:49;2.70;;;2.50;;
7511;SDS011;9999;48.780;9.146;2022-11-20T00:54:16;2.37;;;1.90;;
7511;SDS011;9999;48.780;9.146;2022-11-20T00:56:43;5.23;;;1.87;;
7511;SDS011;9999;48.780;9.146;2022-11-20T00:59:10;1.87;;;1.70;;
7511;SDS011;9999;48.780;9.146;2022-11-20T01:01:37;2.47;;;2.07;;
7511;SDS011;9999;48.780;9.146;2022-11-20T01:04:04;2.53;;;2.03;;
7511;SDS011;9999;48.780;9.146;2022-11-20T01:06:33;2.37;;;1.97;;
7511;SDS011;9999;48.780;9.146;2022-11-20T01:09:02;2.87;;;1.77;;
7511;SDS011;9999;48.780;9.146;2022-11-20T01:11:31;1.93;;;1.37;;
7511;SDS011;9999;48.780;9.146;2022-11-20T01:14:00;1.37;;;1.27;;
7511;SDS011;9999;48.780;9.146;2022-11-20T01:16:30;2.47;;;2.10;;
7511;SDS011;9999;48.780;9.146;2022-11-20T01:18:58;1.57;;;1.47;;
7511;SDS011;9999;48.780;9.146;2022-11-20T01:21:27;1.57;;;1.47;;
7511;SDS011;9999;48.780;9.146;2022-11-20T01:23:57;2.87;;;1.97;;
7511;SDS011;9999;48.780;9.146;2022-11-20T01:26:25;1.70;;;1.50;;
7511;SDS011;9999;48.780;9.146;2022-11-20T01:28:53;1.77;;;1.50;;
7511;SDS011;9999;48.780;9.146;2022-11-20T01:31:20;4.37;;;2.23;;
7511;SDS011;9999;48.780;9.146;2022-11-20T01:33:50;1.70;;;1.47;;
7511;SDS011;9999;48.780;9.146;2022-11-20T01:36:18;2.33;;;2.07;;
7511;SDS011;9999;48.780;9.146;2022-11-20T01:38:46;1.80;;;1.67;;
7511;SDS011;9999;48.780;9.146;2022-11-20T01:41:15;2.30;;;1.17;;
7511;SDS011;9999;48.780;9.146;2022-11-20T01:43:56;2.20;;;1.33;;
7511;SDS011;9999;48.780;9.146;2022-11-20T01:46:23;3.90;;;2.43;;
7511;SDS011;9999;48.780;9.146;2022-11-20T01:48:51;2.07;;;1.60;;
7511;SDS011;9999;48.780;9.146;2022-11-20T01:51:25;1.60;;;1.40;;
7511;SDS011;9999;48.780;9.146;2022-11-20T01:53:55;2.57;;;1.93;;
7511;SDS011;9999;48.780;9.146;2022-11-20T01:56:26;1.30;;;1.20;;
7511;SDS011;9999;48.780;9.146;2022-11-20T01:58:56;1.90;;;1.27;;
7511;SDS011;9999;48.780;9.146;2022-11-20T02:01:26;1.87;;;1.53;;
7511;SDS011;9999;48.780;9.146;2022-11-20T02:03:53;1.77;;;1.53;;
7511;SDS011;9999;48.780;9.146;2022-11-20T02:06:22;1.27;;;1.23;;
7511;SDS011;9999;48.780;9.146;2022-11-20T02:08:51;3.73;;;1.00;;
7511;SDS011;9999;48.780;9.146;2022-11-20T02:11:18;2.20;;;1.47;;
7511;SDS011;9999;48.780;9.146;2022-11-20T02:13:47;1.47;;;1.30;;
7511;SDS011;9999;48.780;9.146;2022-11-20T02:16:15;1.50;;;1.33;;
7511;SDS011;9999;48.780;9.146;2022-11-20T02:18:45;1.07;;;1.03;;
7511;SDS011;9999;48.780;9.146;2022-11-20T02:21:15;1.90;;;1.20;;
7511;SDS011;9999;48.780;9.146;2022-11-20T02:24:08;1.67;;;1.53;;
7511;SDS011;9999;48.780;9.146;2022-11-20T02:26:39;1.63;;;1.50;;
7511;SDS011;9999;48.780;9.146;2022-11-20T02:29:09;1.60;;;1.27;;
7511;SDS011;9999;48.780;9.146;2022-11-20T02:31:37;1.03;;;0.73;;
7511;SDS011;9999;48.780;9.146;2022-11-20T02:34:06;2.03;;;1.43;;
7511;SDS011;9999;48.780;9.146;2022-11-20T02:36:33;4.63;;;2.30;;
7511;SDS011;9999;48.780;9.146;2022-11-20T02:39:02;2.60;;;1.40;;
7511;SDS011;9999;48.780;9.146;2022-11-20T02:41:31;1.80;;;1.33;;
7511;SDS011;9999;48.780;9.146;2022-11-20T02:43:59;1.47;;;1.37;;
7511;SDS011;9999;48.780;9.146;2022-11-20T02:46:27;1.10;;;1.00;;
7511;SDS011;9999;48.780;9.146;2022-11-20T02:48:54;1.33;;;1.23;;
7511;SDS011;9999;48.780;9.146;2022-11-20T02:51:21;1.97;;;1.63;;
7511;SDS011;9999;48.780;9.146;2022-11-20T02:53:48;0.77;;;0.70;;
7511;SDS011;9999;48.780;9.146;2022-11-20T02:56:15;1.70;;;1.60;;
7511;SDS011;9999;48.780;9.146;2022-11-20T02:58:44;1.20;;;1.00;;
7511;SDS011;9999;48.780;9.146;2022-11-20T03:01:11;1.80;;;1.70;;
7511;SDS011;9999;48.780;9.146;2022-11-20T03:03:38;2.10;;;1.40;;
7511;SDS011;9999;48.780;9.146;2022-11-20T03:06:05;1.50;;;1.40;;
7511;SDS011;9999;48.780;9.146;2022-11-20T03:08:32;2.33;;;1.80;;
7511;SDS011;9999;48.780;9.146;2022-11-20T03:11:01;4.30;;;1.47;;
7511;SDS011;9999;48.780;9.146;2022-11-20T03:13:29;1.57;;;1.40;;
7511;SDS011;9999;48.780;9.146;2022-11-20T03:15:57;1.50;;;1.40;;
7511;SDS011;9999;48.780;9.146;2022-11-20T03:18:27;2.53;;;1.50;;
7511;SDS011;9999;48.780;9.146;2022-11-20T03:20:56;8.67;;;1.90;;
7511;SDS011;9999;48.780;9.146;2022-11-20T03:23:24;2.07;;;1.33;;
7511;SDS011;9999;48.780;9.146;2022-11-20T03:25:51;2.63;;;1.90;;
7511;SDS011;9999;48.780;9.146;2022-11-20T03:28:18;3.00;;;1.60;;
7511;SDS011;9999;48.780;9.146;2022-11-20T03:30:45;1.97;;;1.73;;
7511;SDS011;9999;48.780;9.146;2022-11-20T03:33:13;1.90;;;1.33;;
7511;SDS011;9999;48.780;9.146;2022-11-20T03:35:40;1.87;;;1.73;;
7511;SDS011;9999;48.780;9.146;2022-11-20T03:38:07;1.97;;;1.70;;
7511;SDS011;9999;48.780;9.146;2022-11-20T03:40:34;1.40;;;1.30;;
7511;SDS011;9999;48.780;9.146;2022-11-20T03:43:01;1.37;;;1.33;;
7511;SDS011;9999;48.780;9.146;2022-11-20T03:45:28;1.77;;;1.67;;
7511;SDS011;9999;48.780;9.146;2022-11-20T03:47:55;2.23;;;1.97;;
7511;SDS011;9999;48.780;9.146;2022-11-20T03:50:23;1.70;;;1.57;;
7511;SDS011;9999;48.780;9.146;2022-11-20T03:52:50;2.63;;;1.53;;
7511;SDS011;9999;48.780;9.146;2022-11-20T03:55:17;3.77;;;2.23;;
7511;SDS011;9999;48.780;9.146;2022-11-20T03:57:44;3.03;;;2.00;;
7511;SDS011;9999;48.780;9.146;2022-11-20T04:00:11;4.03;;;2.30;;
7511;SDS011;9999;48.780;9.146;2022-11-20T04:02:39;2.00;;;1.60;;
7511;SDS011;9999;48.780;9.146;2022-11-20T04:05:06;1.73;;;1.63;;
7511;SDS011;9999;48.780;9.146;2022-11-20T04:07:35;1.43;;;1.07;;
7511;SDS011;9999;48.780;9.146;2022-11-20T04:10:02;2.97;;;1.63;;
7511;SDS011;9999;48.780;9.146;2022-11-20T04:12:31;2.80;;;1.30;;
7511;SDS011;9999;48.780;9.146;2022-11-20T04:14:59;1.90;;;1.80;;
7511;SDS011;9999;48.780;9.146;2022-11-20T04:17:26;2.43;;;1.40;;
7511;SDS011;9999;48.780;9.146;2022-11-20T04:19:53;1.93;;;1.10;;
7511;SDS011;9999;48.780;9.146;2022-11-20T04:22:20;1.70;;;1.60;;
7511;SDS011;9999;48.780;9.146;2022-11-20T04:24:48;2.67;;;2.20;;
7511;SDS011;9999;48.780;9.146;2022-11-20T04:27:15;3.43;;;2.07;;
7511;SDS011;9999;48.780;9.146;2022-11-20T04:29:42;3.07;;;1.37;;
7511;SDS011;9999;48.780;9.146;2022-11-20T04:32:09;2.03;;;1.57;;
7511;SDS011;9999;48.780;9.146;2022-11-20T04:34:36;6.30;;;2.20;;
7511;SDS011;9999;48.780;9.146;2022-11-20T04:37:03;2.17;;;1.97;;
7511;SDS011;9999;48.780;9.146;2022-11-20T04:39:30;6.07;;;2.50;;
7511;SDS011;9999;48.780;9.146;2022-11-20T04:41:58;1.63;;;1.53;;
7511;SDS011;9999;48.780;9.146;2022-11-20T04:44:39;3.17;;;1.90;;
7511;SDS011;9999;48.780;9.146;2022-11-20T04:47:06;4.33;;;2.23;;
7511;SDS011;9999;48.780;9.146;2022-11-20T04:49:33;2.17;;;1.43;;
7511;SDS011;9999;48.780;9.146;2022-11-20T04:52:00;1.70;;;1.60;;
7511;SDS011;9999;48.780;9.146;2022-11-20T04:54:27;2.70;;;1.70;;
7511;SDS011;9999;48.780;9.146;2022-11-20T04:56:54;2.70;;;1.80;;
7511;SDS011;9999;48.780;9.146;2022-11-20T04:59:22;2.37;;;2.07;;
7511;SDS011;9999;48.780;9.146;2022-11-20T05:01:49;2.27;;;2.03;;
7511;SDS011;9999;48.780;9.146;2022-11-20T05:04:16;1.87;;;1.67;;
7511;SDS011;9999;48.780;9.146;2022-11-20T05:06:43;2.57;;;2.03;;
7511;SDS011;9999;48.780;9.146;2022-11-20T05:09:10;2.10;;;1.90;;
7511;SDS011;9999;48.780;9.146;2022-11-20T05:11:37;1.90;;;1.57;;
7511;SDS011;9999;48.780;9.146;2022-11-20T05:14:04;4.87;;;1.93;;
7511;SDS011;9999;48.780;9.146;2022-11-20T05:16:33;1.47;;;1.37;;
7511;SDS011;9999;48.780;9.146;2022-11-20T05:19:01;1.83;;;1.40;;
7511;SDS011;9999;48.780;9.146;2022-11-20T05:21:29;1.83;;;1.73;;
7511;SDS011;9999;48.780;9.146;2022-11-20T05:23:57;2.23;;;1.40;;
7511;SDS011;9999;48.780;9.146;2022-11-20T05:26:24;1.70;;;1.57;;
7511;SDS011;9999;48.780;9.146;2022-11-20T05:28:51;8.40;;;1.60;;
7511;SDS011;9999;48.780;9.146;2022-11-20T05:31:19;1.40;;;1.30;;
7511;SDS011;9999;48.780;9.146;2022-11-20T05:33:49;1.53;;;1.43;;
7511;SDS011;9999;48.780;9.146;2022-11-20T05:36:16;2.53;;;2.10;;
7511;SDS011;9999;48.780;9.146;2022-11-20T05:38:43;3.67;;;2.17;;
7511;SDS011;9999;48.780;9.146;2022-11-20T05:41:12;1.77;;;1.53;;
7511;SDS011;9999;48.780;9.146;2022-11-20T05:43:40;2.60;;;1.50;;
7511;SDS011;9999;48.780;9.146;2022-11-20T05:46:10;1.80;;;1.37;;
7511;SDS011;9999;48.780;9.146;2022-11-20T05:48:38;1.27;;;1.17;;
7511;SDS011;9999;48.780;9.146;2022-11-20T05:51:08;2.00;;;1.47;;
7511;SDS011;9999;48.780;9.146;2022-11-20T05:53:36;3.93;;;2.70;;
7511;SDS011;9999;48.780;9.146;2022-11-20T05:56:04;1.60;;;1.50;;
7511;SDS011;9999;48.780;9.146;2022-11-20T05:58:32;8.00;;;1.03;;
7511;SDS011;9999;48.780;9.146;2022-11-20T06:01:03;2.47;;;1.30;;
7511;SDS011;9999;48.780;9.146;2022-11-20T06:03:31;1.50;;;1.30;;
7511;SDS011;9999;48.780;9.146;2022-11-20T06:05:58;2.30;;;1.77;;
7511;SDS011;9999;48.780;9.146;2022-11-20T06:08:26;2.53;;;1.47;;
7511;SDS011;9999;48.780;9.146;2022-11-20T06:10:53;1.23;;;1.17;;
7511;SDS011;9999;48.780;9.146;2022-11-20T06:13:20;1.83;;;1.40;;
7511;SDS011;9999;48.780;9.146;2022-11-20T06:15:48;2.10;;;1.90;;
7511;SDS011;9999;48.780;9.146;2022-11-20T06:18:15;1.63;;;1.37;;
7511;SDS011;9999;48.780;9.146;2022-11-20T06:20:42;1.33;;;1.23;;
7511;SDS011;9999;48.780;9.146;2022-11-20T06:23:09;1.37;;;1.27;;
7511;SDS011;9999;48.780;9.146;2022-11-20T06:25:38;3.20;;;1.60;;
7511;SDS011;9999;48.780;9.146;2022-11-20T06:28:05;1.23;;;1.13;;
7511;SDS011;9999;48.780;9.146;2022-11-20T06:30:33;2.00;;;1.80;;
7511;SDS011;9999;48.780;9.146;2022-11-20T06:33:00;2.13;;;1.90;;
7511;SDS011;9999;48.780;9.146;2022-11-20T06:35:27;1.23;;;1.00;;
7511;SDS011;9999;48.780;9.146;2022-11-20T06:37:55;2.57;;;1.63;;
7511;SDS011;9999;48.780;9.146;2022-11-20T06:40:22;2.57;;;1.37;;
7511;SDS011;9999;48.780;9.146;2022-11-20T06:42:50;3.00;;;1.40;;
7511;SDS011;9999;48.780;9.146;2022-11-20T06:45:20;1.00;;;1.00;;
7511;SDS011;9999;48.780;9.146;2022-11-20T06:47:47;1.10;;;0.87;;
7511;SDS011;9999;48.780;9.146;2022-11-20T06:50:14;1.60;;;1.30;;
7511;SDS011;9999;48.780;9.146;2022-11-20T06:52:41;0.90;;;0.90;;
7511;SDS011;9999;48.780;9.146;2022-11-20T06:55:08;3.67;;;1.67;;
7511;SDS011;9999;48.780;9.146;2022-11-20T06:57:35;0.77;;;0.67;;
7511;SDS011;9999;48.780;9.146;2022-11-20T07:00:04;1.27;;;0.90;;
7511;SDS011;9999;48.780;9.146;2022-11-20T07:02:31;7.93;;;1.63;;
7511;SDS011;9999;48.780;9.146;2022-11-20T07:04:58;2.63;;;2.03;;
7511;SDS011;9999;48.780;9.146;2022-11-20T07:07:25;1.70;;;1.60;;
7511;SDS011;9999;48.780;9.146;2022-11-20T07:09:52;1.37;;;1.20;;
7511;SDS011;9999;48.780;9.146;2022-11-20T07:12:19;1.43;;;1.30;;
7511;SDS011;9999;48.780;9.146;2022-11-20T07:14:46;1.10;;;1.00;;
7511;SDS011;9999;48.780;9.146;2022-11-20T07:17:14;1.80;;;1.50;;
7511;SDS011;9999;48.780;9.146;2022-11-20T07:19:41;1.77;;;1.37;;
7511;SDS011;9999;48.780;9.146;2022-11-20T07:22:08;2.17;;;1.10;;
7511;SDS011;9999;48.780;9.146;2022-11-20T07:24:35;1.97;;;1.27;;
7511;SDS011;9999;48.780;9.146;2022-11-20T07:27:02;0.87;;;0.80;;
7511;SDS011;9999;48.780;9.146;2022-11-20T07:29:30;2.50;;;1.43;;
7511;SDS011;9999;48.780;9.146;2022-11-20T07:31:57;4.67;;;1.53;;
7511;SDS011;9999;48.780;9.146;2022-11-20T07:34:25;1.50;;;1.40;;
7511;SDS011;9999;48.780;9.146;2022-11-20T07:36:52;1.83;;;1.57;;
7511;SDS011;9999;48.780;9.146;2022-11-20T07:39:19;1.20;;;1.10;;
7511;SDS011;9999;48.780;9.146;2022-11-20T07:41:46;0.67;;;0.67;;
7511;SDS011;9999;48.780;9.146;2022-11-20T07:44:13;6.07;;;1.63;;
7511;SDS011;9999;48.780;9.146;2022-11-20T07:46:40;2.20;;;1.23;;
7511;SDS011;9999;48.780;9.146;2022-11-20T07:49:07;1.83;;;1.50;;
7511;SDS011;9999;48.780;9.146;2022-11-20T07:51:35;0.90;;;0.90;;
7511;SDS011;9999;48.780;9.146;2022-11-20T07:54:02;1.70;;;1.03;;
7511;SDS011;9999;48.780;9.146;2022-11-20T07:56:29;1.03;;;0.80;;
7511;SDS011;9999;48.780;9.146;2022-11-20T07:58:56;1.30;;;1.20;;
7511;SDS011;9999;48.780;9.146;2022-11-20T08:01:23;1.53;;;1.23;;
7511;SDS011;9999;48.780;9.146;2022-11-20T08:03:50;0.97;;;0.90;;
7511;SDS011;9999;48.780;9.146;2022-11-20T08:06:17;0.70;;;0.70;;
7511;SDS011;9999;48.780;9.146;2022-11-20T08:08:46;2.87;;;1.87;;
7511;SDS011;9999;48.780;9.146;2022-11-20T08:11:13;1.53;;;1.30;;
7511;SDS011;9999;48.780;9.146;2022-11-20T08:13:57;1.50;;;1.17;;
7511;SDS011;9999;48.780;9.146;2022-11-20T08:16:44;1.23;;;1.13;;
7511;SDS011;9999;48.780;9.146;2022-11-20T08:19:12;1.27;;;1.27;;
7511;SDS011;9999;48.780;9.146;2022-11-20T08:21:40;0.90;;;0.90;;
7511;SDS011;9999;48.780;9.146;2022-11-20T08:24:08;2.03;;;0.90;;
7511;SDS011;9999;48.780;9.146;2022-11-20T08:26:36;1.87;;;1.33;;
7511;SDS011;9999;48.780;9.146;2022-11-20T08:29:05;0.60;;;0.60;;
7511;SDS011;9999;48.780;9.146;2022-11-20T08:31:32;0.60;;;0.60;;
7511;SDS011;9999;48.780;9.146;2022-11-20T08:33:59;1.53;;;1.07;;
7511;SDS011;9999;48.780;9.146;2022-11-20T08:36:26;3.10;;;0.83;;
7511;SDS011;9999;48.780;9.146;2022-11-20T08:38:54;1.40;;;1.30;;
7511;SDS011;9999;48.780;9.146;2022-11-20T08:41:22;0.70;;;0.70;;
7511;SDS011;9999;48.780;9.146;2022-11-20T08:43:51;1.03;;;0.90;;
7511;SDS011;9999;48.780;9.146;2022-11-20T08:46:23;1.70;;;1.53;;
7511;SDS011;9999;48.780;9.146;2022-11-20T08:48:53;1.83;;;0.80;;
7511;SDS011;9999;48.780;9.146;2022-11-20T08:51:20;0.93;;;0.80;;
7511;SDS011;9999;48.780;9.146;2022-11-20T08:53:47;1.07;;;1.00;;
7511;SDS011;9999;48.780;9.146;2022-11-20T08:56:14;1.07;;;1.00;;
7511;SDS011;9999;48.780;9.146;2022-11-20T08:58:43;1.07;;;1.07;;
7511;SDS011;9999;48.780;9.146;2022-11-20T09:01:10;2.20;;;1.00;;
7511;SDS011;9999;48.780;9.146;2022-11-20T09:03:37;1.40;;;0.83;;
7511;SDS011;9999;48.780;9.146;2022-11-20T09:06:05;0.83;;;0.80;;
7511;SDS011;9999;48.780;9.146;2022-11-20T09:08:33;0.57;;;0.57;;
7511;SDS011;9999;48.780;9.146;2022-11-20T09:11:02;1.10;;;0.87;;
7511;SDS011;9999;48.780;9.146;2022-11-20T09:13:29;0.70;;;0.70;;
7511;SDS011;9999;48.780;9.146;2022-11-20T09:15:59;0.60;;;0.60;;
7511;SDS011;9999;48.780;9.146;2022-11-20T09:18:27;0.63;;;0.60;;
7511;SDS011;9999;48.780;9.146;2022-11-20T09:20:56;0.47;;;0.47;;
7511;SDS011;9999;48.780;9.146;2022-11-20T09:23:24;0.20;;;0.20;;
7511;SDS011;9999;48.780;9.146;2022-11-20T09:25:51;0.57;;;0.57;;
7511;SDS011;9999;48.780;9.146;2022-11-20T09:28:20;0.50;;;0.50;;
7511;SDS011;9999;48.780;9.146;2022-11-20T09:30:47;3.67;;;1.67;;
7511;SDS011;9999;48.780;9.146;2022-11-20T09:33:16;0.43;;;0.43;;
7511;SDS011;9999;48.780;9.146;2022-11-20T09:35:43;0.83;;;0.83;;
7511;SDS011;9999;48.780;9.146;2022-11-20T09:38:10;0.40;;;0.40;;
7511;SDS011;9999;48.780;9.146;2022-11-20T09:40:39;0.30;;;0.20;;
7511;SDS011;9999;48.780;9.146;2022-11-20T09:43:12;1.87;;;0.60;;
7511;SDS011;9999;48.780;9.146;2022-11-20T09:45:54;0.80;;;0.80;;
7511;SDS011;9999;48.780;9.146;2022-11-20T09:48:33;0.63;;;0.30;;
7511;SDS011;9999;48.780;9.146;2022-11-20T09:51:11;0.20;;;0.20;;
7511;SDS011;9999;48.780;9.146;2022-11-20T09:53:53;0.43;;;0.43;;
7511;SDS011;9999;48.780;9.146;2022-11-20T09:56:29;0.33;;;0.20;;
7511;SDS011;9999;48.780;9.146;2022-11-20T09:58:57;0.20;;;0.20;;
7511;SDS011;9999;48.780;9.146;2022-11-20T10:01:29;0.27;;;0.27;;
7511;SDS011;9999;48.780;9.146;2022-11-20T10:04:00;0.37;;;0.30;;
7511;SDS011;9999;48.780;9.146;2022-11-20T10:06:30;0.37;;;0.37;;
7511;SDS011;9999;48.780;9.146;2022-11-20T10:09:00;0.27;;;0.27;;
7511;SDS011;9999;48.780;9.146;2022-11-20T10:11:37;0.23;;;0.23;;
7511;SDS011;9999;48.780;9.146;2022-11-20T10:14:16;0.70;;;0.70;;
7511;SDS011;9999;48.780;9.146;2022-11-20T10:16:53;0.60;;;0.60;;
7511;SDS011;9999;48.780;9.146;2022-11-20T10:19:33;0.30;;;0.30;;
7511;SDS011;9999;48.780;9.146;2022-11-20T10:22:13;0.50;;;0.50;;
7511;SDS011;9999;48.780;9.146;2022-11-20T10:24:55;0.53;;;0.53;;
7511;SDS011;9999;48.780;9.146;2022-11-20T10:27:30;0.60;;;0.40;;
7511;SDS011;9999;48.780;9.146;2022-11-20T10:30:08;0.40;;;0.40;;
7511;SDS011;9999;48.780;9.146;2022-11-20T10:32:37;0.60;;;0.60;;
7511;SDS011;9999;48.780;9.146;2022-11-20T10:35:13;0.37;;;0.37;;
7511;SDS011;9999;48.780;9.146;2022-11-20T10:37:44;0.50;;;0.50;;
7511;SDS011;9999;48.780;9.146;2022-11-20T10:40:18;0.30;;;0.30;;
7511;SDS011;9999;48.780;9.146;2022-11-20T10:42:49;0.20;;;0.20;;
7511;SDS011;9999;48.780;9.146;2022-11-20T10:45:21;0.40;;;0.40;;
7511;SDS011;9999;48.780;9.146;2022-11-20T10:48:04;0.30;;;0.30;;
7511;SDS011;9999;48.780;9.146;2022-11-20T10:50:40;0.57;;;0.57;;
7511;SDS011;9999;48.780;9.146;2022-11-20T10:53:16;0.43;;;0.43;;
7511;SDS011;9999;48.780;9.146;2022-11-20T10:55:50;0.77;;;0.77;;
7511;SDS011;9999;48.780;9.146;2022-11-20T10:58:33;2.43;;;0.87;;
7511;SDS011;9999;48.780;9.146;2022-11-20T11:01:11;0.47;;;0.47;;
7511;SDS011;9999;48.780;9.146;2022-11-20T11:03:41;0.50;;;0.50;;
7511;SDS011;9999;48.780;9.146;2022-11-20T11:06:12;0.50;;;0.50;;
7511;SDS011;9999;48.780;9.146;2022-11-20T11:08:47;0.73;;;0.70;;
7511;SDS011;9999;48.780;9.146;2022-11-20T11:11:20;0.90;;;0.90;;
7511;SDS011;9999;48.780;9.146;2022-11-20T11:13:49;1.20;;;0.80;;
7511;SDS011;9999;48.780;9.146;2022-11-20T11:16:19;2.07;;;0.67;;
7511;SDS011;9999;48.780;9.146;2022-11-20T11:18:47;0.60;;;0.60;;
7511;SDS011;9999;48.780;9.146;2022-11-20T11:21:21;0.40;;;0.40;;
7511;SDS011;9999;48.780;9.146;2022-11-20T11:23:57;0.60;;;0.60;;
7511;SDS011;9999;48.780;9.146;2022-11-20T11:26:26;0.63;;;0.63;;
7511;SDS011;9999;48.780;9.146;2022-11-20T11:28:54;0.83;;;0.70;;
7511;SDS011;9999;48.780;9.146;2022-11-20T11:31:23;3.90;;;1.10;;
7511;SDS011;9999;48.780;9.146;2022-11-20T11:33:50;0.73;;;0.73;;
7511;SDS011;9999;48.780;9.146;2022-11-20T11:36:18;1.07;;;0.83;;
7511;SDS011;9999;48.780;9.146;2022-11-20T11:38:50;0.70;;;0.70;;
7511;SDS011;9999;48.780;9.146;2022-11-20T11:41:20;0.77;;;0.77;;
7511;SDS011;9999;48.780;9.146;2022-11-20T11:43:51;0.50;;;0.50;;
7511;SDS011;9999;48.780;9.146;2022-11-20T11:46:37;0.77;;;0.77;;
7511;SDS011;9999;48.780;9.146;2022-11-20T11:49:14;1.77;;;1.07;;
7511;SDS011;9999;48.780;9.146;2022-11-20T11:51:47;1.20;;;1.03;;
7511;SDS011;9999;48.780;9.146;2022-11-20T11:54:34;3.43;;;0.90;;
7511;SDS011;9999;48.780;9.146;2022-11-20T11:57:05;1.37;;;0.80;;
7511;SDS011;9999;48.780;9.146;2022-11-20T11:59:43;3.00;;;1.37;;
7511;SDS011;9999;48.780;9.146;2022-11-20T12:02:23;0.80;;;0.80;;
7511;SDS011;9999;48.780;9.146;2022-11-20T12:04:59;1.00;;;0.90;;
7511;SDS011;9999;48.780;9.146;2022-11-20T12:07:38;5.27;;;1.10;;
7511;SDS011;9999;48.780;9.146;2022-11-20T12:10:12;0.97;;;0.87;;
7511;SDS011;9999;48.780;9.146;2022-11-20T12:12:46;1.27;;;1.17;;
7511;SDS011;9999;48.780;9.146;2022-11-20T12:15:22;0.40;;;0.40;;
7511;SDS011;9999;48.780;9.146;2022-11-20T12:17:52;1.20;;;0.77;;
7511;SDS011;9999;48.780;9.146;2022-11-20T12:20:19;0.60;;;0.60;;
7511;SDS011;9999;48.780;9.146;2022-11-20T12:22:52;0.50;;;0.40;;
7511;SDS011;9999;48.780;9.146;2022-11-20T12:25:22;0.47;;;0.47;;
7511;SDS011;9999;48.780;9.146;2022-11-20T12:27:57;1.87;;;1.20;;
7511;SDS011;9999;48.780;9.146;2022-11-20T12:30:47;0.70;;;0.70;;
7511;SDS011;9999;48.780;9.146;2022-11-20T12:33:40;2.33;;;0.67;;
7511;SDS011;9999;48.780;9.146;2022-11-20T12:36:17;0.30;;;0.30;;
7511;SDS011;9999;48.780;9.146;2022-11-20T12:39:00;1.03;;;0.60;;
7511;SDS011;9999;48.780;9.146;2022-11-20T12:41:43;0.40;;;0.40;;
7511;SDS011;9999;48.780;9.146;2022-11-20T12:44:46;0.73;;;0.33;;
7511;SDS011;9999;48.780;9.146;2022-11-20T12:47:45;0.70;;;0.70;;
7511;SDS011;9999;48.780;9.146;2022-11-20T12:50:28;0.50;;;0.50;;
7511;SDS011;9999;48.780;9.146;2022-11-20T12:53:04;0.80;;;0.80;;
7511;SDS011;9999;48.780;9.146;2022-11-20T12:55:38;0.90;;;0.90;;
7511;SDS011;9999;48.780;9.146;2022-11-20T12:58:15;2.30;;;0.53;;
7511;SDS011;9999;48.780;9.146;2022-11-20T13:00:53;0.70;;;0.60;;
7511;SDS011;9999;48.780;9.146;2022-11-20T13:06:12;0.40;;;0.40;;
7511;SDS011;9999;48.780;9.146;2022-11-20T13:08:42;0.70;;;0.47;;
7511;SDS011;9999;48.780;9.146;2022-11-20T13:11:16;0.73;;;0.47;;
7511;SDS011;9999;48.780;9.146;2022-11-20T13:13:53;1.30;;;0.80;;
7511;SDS011;9999;48.780;9.146;2022-11-20T13:16:38;0.70;;;0.70;;
7511;SDS011;9999;48.780;9.146;2022-11-20T13:19:12;1.70;;;0.60;;
7511;SDS011;9999;48.780;9.146;2022-11-20T13:21:42;2.65;;;0.73;;
7511;SDS011;9999;48.780;9.146;2022-11-20T13:24:20;1.33;;;0.60;;
7511;SDS011;9999;48.780;9.146;2022-11-20T13:27:00;0.63;;;0.63;;
7511;SDS011;9999;48.780;9.146;2022-11-20T13:29:29;0.50;;;0.50;;
7511;SDS011;9999;48.780;9.146;2022-11-20T13:32:04;0.40;;;0.40;;
7511;SDS011;9999;48.780;9.146;2022-11-20T13:34:32;1.03;;;0.50;;
7511;SDS011;9999;48.780;9.146;2022-11-20T13:37:00;0.60;;;0.60;;
7511;SDS011;9999;48.780;9.146;2022-11-20T13:39:29;0.50;;;0.50;;
7511;SDS011;9999;48.780;9.146;2022-11-20T13:41:58;0.33;;;0.33;;
7511;SDS011;9999;48.780;9.146;2022-11-20T13:44:30;0.97;;;0.97;;
7511;SDS011;9999;48.780;9.146;2022-11-20T13:47:04;0.57;;;0.57;;
7511;SDS011;9999;48.780;9.146;2022-11-20T13:49:46;0.50;;;0.50;;
7511;SDS011;9999;48.780;9.146;2022-11-20T13:52:26;0.57;;;0.40;;
7511;SDS011;9999;48.780;9.146;2022-11-20T13:55:07;0.60;;;0.60;;
7511;SDS011;9999;48.780;9.146;2022-11-20T13:57:47;0.30;;;0.30;;
7511;SDS011;9999;48.780;9.146;2022-11-20T14:00:25;0.67;;;0.67;;
7511;SDS011;9999;48.780;9.146;2022-11-20T14:02:58;0.77;;;0.50;;
7511;SDS011;9999;48.780;9.146;2022-11-20T14:05:34;0.60;;;0.60;;
7511;SDS011;9999;48.780;9.146;2022-11-20T14:08:02;1.17;;;1.03;;
7511;SDS011;9999;48.780;9.146;2022-11-20T14:10:30;0.30;;;0.30;;
7511;SDS011;9999;48.780;9.146;2022-11-20T14:12:58;0.63;;;0.50;;
7511;SDS011;9999;48.780;9.146;2022-11-20T14:15:36;1.60;;;0.73;;
7511;SDS011;9999;48.780;9.146;2022-11-20T14:18:11;0.40;;;0.40;;
7511;SDS011;9999;48.780;9.146;2022-11-20T14:20:39;0.53;;;0.53;;
7511;SDS011;9999;48.780;9.146;2022-11-20T14:23:08;1.13;;;0.80;;
7511;SDS011;9999;48.780;9.146;2022-11-20T14:25:36;0.50;;;0.50;;
7511;SDS011;9999;48.780;9.146;2022-11-20T14:28:11;0.57;;;0.57;;
7511;SDS011;9999;48.780;9.146;2022-11-20T14:30:48;0.50;;;0.50;;
7511;SDS011;9999;48.780;9.146;2022-11-20T14:33:15;0.60;;;0.60;;
7511;SDS011;9999;48.780;9.146;2022-11-20T14:35:45;0.57;;;0.57;;
7511;SDS011;9999;48.780;9.146;2022-11-20T14:38:14;0.63;;;0.63;;
7511;SDS011;9999;48.780;9.146;2022-11-20T14:40:44;0.70;;;0.70;;
7511;SDS011;9999;48.780;9.146;2022-11-20T14:43:17;0.60;;;0.60;;
7511;SDS011;9999;48.780;9.146;2022-11-20T14:45:48;0.47;;;0.47;;
7511;SDS011;9999;48.780;9.146;2022-11-20T14:48:22;0.70;;;0.70;;
7511;SDS011;9999;48.780;9.146;2022-11-20T14:50:53;0.53;;;0.53;;
7511;SDS011;9999;48.780;9.146;2022-11-20T14:53:22;0.37;;;0.37;;
7511;SDS011;9999;48.780;9.146;2022-11-20T14:55:54;0.73;;;0.73;;
7511;SDS011;9999;48.780;9.146;2022-11-20T14:58:24;5.63;;;1.57;;
7511;SDS011;9999;48.780;9.146;2022-11-20T15:00:54;1.03;;;0.63;;
7511;SDS011;9999;48.780;9.146;2022-11-20T15:03:32;1.13;;;0.80;;
7511;SDS011;9999;48.780;9.146;2022-11-20T15:06:00;1.83;;;0.77;;
7511;SDS011;9999;48.780;9.146;2022-11-20T15:08:28;0.53;;;0.53;;
7511;SDS011;9999;48.780;9.146;2022-11-20T15:10:55;0.80;;;0.80;;
7511;SDS011;9999;48.780;9.146;2022-11-20T15:13:26;0.60;;;0.60;;
7511;SDS011;9999;48.780;9.146;2022-11-20T15:15:56;0.50;;;0.50;;
7511;SDS011;9999;48.780;9.146;2022-11-20T15:18:24;1.17;;;0.90;;
7511;SDS011;9999;48.780;9.146;2022-11-20T15:20:54;1.27;;;1.20;;
7511;SDS011;9999;48.780;9.146;2022-11-20T15:23:22;2.00;;;0.80;;
7511;SDS011;9999;48.780;9.146;2022-11-20T15:25:49;0.77;;;0.70;;
7511;SDS011;9999;48.780;9.146;2022-11-20T15:28:17;0.77;;;0.60;;
7511;SDS011;9999;48.780;9.146;2022-11-20T15:30:47;1.37;;;0.83;;
7511;SDS011;9999;48.780;9.146;2022-11-20T15:33:15;0.87;;;0.53;;
7511;SDS011;9999;48.780;9.146;2022-11-20T15:35:42;0.87;;;0.87;;